Thursday, November 23, 2017, 2:16 AM EST
Back to Local

KGED, Georgetown Sussex Co Airport

Location: Georgetown, DE, United States Lat: 38.683
Local Time: 2:16 AM EST ( 7:16 GMT) Lon: -75.367
Time Zone: US/Eastern Elev: 52 ft

Show me the last for .
Show Decoded

2017-11-23 01:54 METAR KGED 230654Z AUTO VRB03KT 10SM CLR 02/M04 A3015 RMK AO2 SLP210 T00221044 =
2017-11-23 00:54 METAR KGED 230554Z AUTO 00000KT 10SM CLR 02/M04 A3015 RMK AO2 SLP208 T00221039
                 10078 20022 50003 =
2017-11-22 23:54 METAR KGED 230454Z AUTO 32004KT 10SM CLR 03/M04 A3015 RMK AO2 SLP211 T00331039
                 401610033 =
2017-11-22 22:54 METAR KGED 230354Z AUTO VRB04KT 10SM CLR 04/M03 A3015 RMK AO2 SLP208 T00441033 =
2017-11-22 21:54 METAR KGED 230254Z AUTO VRB04KT 10SM CLR 06/M03 A3014 RMK AO2 SLP205 T00561033
                 53021 =
2017-11-22 20:54 METAR KGED 230154Z AUTO 33008G16KT 10SM CLR 07/M03 A3011 RMK AO2 SLP196
                 T00671033 =
2017-11-22 19:54 METAR KGED 230054Z AUTO 35006KT 10SM CLR 07/M02 A3008 RMK AO2 SLP187 T00721022 =
2017-11-22 18:54 METAR KGED 222354Z AUTO 34006KT 10SM CLR 08/M01 A3007 RMK AO2 SLP183 T00781011
                 10161 20078 51029 =
2017-11-22 17:54 METAR KGED 222254Z AUTO 33008KT 10SM CLR 09/M01 A3004 RMK AO2 SLP173 T00891011 =
2017-11-22 16:54 METAR KGED 222154Z AUTO 33008G16KT 10SM CLR 11/M01 A3002 RMK AO2 SLP165
                 T01061011 =
2017-11-22 15:54 METAR KGED 222054Z AUTO 33010G19KT 10SM CLR 12/M01 A2999 RMK AO2 SLP153
                 T01221011 53021 =
2017-11-22 14:54 METAR KGED 221954Z AUTO 33009G19KT 300V360 10SM CLR 13/02 A2995 RMK AO2 SLP141
                 T01330022 =
2017-11-22 13:54 METAR KGED 221854Z AUTO 34010G20KT 300V010 10SM BKN050 16/03 A2993 RMK AO2
                 SLP134 T01560033 =
2017-11-22 12:54 METAR KGED 221754Z AUTO 34008G19KT 10SM SCT047 16/04 A2992 RMK AO2 SLP132 60012
                 T01560039 10161 20133 51002 =
2017-11-22 11:54 METAR KGED 221654Z AUTO 33008G15KT 290V360 10SM BKN090 15/05 A2992 RMK AO2
                 SLP131 T01500050 =
2017-11-22 10:54 METAR KGED 221554Z AUTO 34008KT 310V010 10SM BKN075 OVC095 14/07 A2992 RMK AO2
                 RAB39E49 SLP132 P0000 T01390072 =
2017-11-22 09:54 METAR KGED 221454Z AUTO 31007KT 10SM OVC070 14/10 A2992 RMK AO2 SLP130 60012
                 T01390100 55003 =
2017-11-22 08:54 METAR KGED 221354Z AUTO VRB05KT 10SM FEW006 OVC080 13/12 A2991 RMK AO2 RAE02
                 SLP126 P0000 T01330117 =
2017-11-22 08:44 METAR KGED 221344Z AUTO 29009KT 10SM SCT006 OVC080 13/12 A2992 RMK AO2 RAE02
                 P0000 T01330117 =
2017-11-22 07:54 METAR KGED 221254Z AUTO VRB03KT 10SM -RA BKN007 BKN049 OVC060 13/13 A2992 RMK
                 AO2 SLP130 P0012 T01330128 =
2017-11-22 07:47 METAR KGED 221247Z AUTO 32003KT 10SM -RA SCT007 BKN049 OVC060 13/13 A2991 RMK
                 AO2 P0012 T01330128 =
2017-11-22 07:17 METAR KGED 221217Z AUTO 00000KT 3SM -RA BR FEW012 BKN042 OVC048 13/12 A2991 RMK
                 AO2 P0012 T01330122 =
2017-11-22 07:10 METAR KGED 221210Z AUTO 30003KT 1 3/4SM +RA BR FEW010 SCT015 OVC038 13/12 A2992
                 RMK AO2 P0010 T01330122 =
2017-11-22 07:04 METAR KGED 221204Z AUTO 27004KT 2SM +RA BR SCT010 BKN024 OVC040 13/13 A2992 RMK
                 AO2 P0007 T01330128 =
2017-11-22 06:54 METAR KGED 221154Z AUTO VRB04KT 3SM RA BR FEW006 BKN024 OVC030 13/13 A2993 RMK
                 AO2 RAE04B16 SLP133 P0019 60051 70051 T01330128 10156 20133 55003 =
2017-11-22 06:43 METAR KGED 221143Z AUTO 27006KT 5SM RA BR FEW019 OVC026 13/13 A2993 RMK AO2
                 RAE04B16 P0014 T01330128 =
2017-11-22 06:34 METAR KGED 221134Z AUTO 29008KT 2SM -RA BR FEW006 BKN021 OVC026 14/13 A2992 RMK
                 AO2 RAE04B16 P0012 T01390128 =
2017-11-22 06:25 METAR KGED 221125Z AUTO 27006KT 3SM RA BR FEW007 BKN018 OVC036 14/13 A2993 RMK
                 AO2 RAE04B16 CIG 010V022 P0006 T01390128 =
2017-11-22 06:18 METAR KGED 221118Z AUTO 29006KT 4SM RA BR FEW012 BKN023 OVC044 14/13 A2992 RMK
                 AO2 RAE04B16 P0005 T01390128 =
2017-11-22 06:11 METAR KGED 221111Z AUTO 29008KT 10SM FEW006 BKN043 OVC055 14/12 A2992 RMK AO2
                 RAE04 P0000 T01390122 =
2017-11-22 05:54 METAR KGED 221054Z AUTO 00000KT 10SM -RA SCT046 BKN055 OVC095 13/13 A2990 RMK
                 AO2 RAE33B54 SLP123 P0003 T01330128 =
2017-11-22 04:54 METAR KGED 220954Z AUTO 17007KT 7SM -RA OVC075 14/13 A2992 RMK AO2 SLP132 P0012
                 T01390128 =
2017-11-22 03:54 METAR KGED 220854Z AUTO 18007KT 6SM RA BR FEW042 SCT060 OVC080 14/12 A2994 RMK
                 AO2 PRESFR SLP137 P0017 60017 T01390122 58023 =
2017-11-22 03:35 METAR KGED 220835Z AUTO VRB03KT 8SM -RA FEW018 BKN031 OVC060 14/12 A2996 RMK AO2
                 P0013 T01390122 =
2017-11-22 03:24 METAR KGED 220824Z AUTO 18007KT 5SM -RA BR FEW018 BKN028 OVC034 14/12 A2997 RMK
                 AO2 P0011 T01390122 =
2017-11-22 03:16 METAR KGED 220816Z AUTO 25005KT 2SM RA BR FEW018 SCT027 OVC033 14/12 A2998 RMK
                 AO2 P0010 T01390122 =
2017-11-22 02:54 METAR KGED 220754Z AUTO 27004KT 8SM -RA FEW024 BKN033 OVC050 14/12 A2998 RMK AO2
                 RAB42 SLP152 P0000 T01440117 =

Support USWX by starting your Amazon purchase here.